Time;durP1;ratioP1;P1;durP2;ratioP2;P2;SDS_P1;SDS_P2;PMS_P1;PMS_P2;Temp;Humidity;BMP_temperature;BMP_pressure;BME280_temperature;BME280_humidity;BME280_pressure;Samples;Min_cycle;Max_cycle;Signal;HPM_P1;HPM_P2
2020/12/23 00:02:23;;;;;;;12.68;1.98;;;7.40;99.90;;;;;;5088820;28;20020;-81
2020/12/23 00:04:49;;;;;;;14.93;3.08;;;7.40;99.90;;;;;;5091655;28;20435;-81
2020/12/23 00:07:15;;;;;;;10.30;1.80;;;7.30;99.90;;;;;;5089753;28;20039;-80
2020/12/23 00:09:45;;;;;;;10.10;2.42;;;7.30;99.90;;;;;;5088843;28;20501;-80
2020/12/23 00:12:10;;;;;;;;;;;7.30;99.90;;;;;;5089150;28;20114;-81
2020/12/23 00:14:36;;;;;;;14.15;1.77;;;7.30;99.90;;;;;;5089012;28;20346;-80
2020/12/23 00:17:03;;;;;;;10.27;2.03;;;7.20;99.90;;;;;;5072083;28;20425;-78
2020/12/23 00:19:28;;;;;;;12.65;2.05;;;7.10;99.90;;;;;;5088454;28;20024;-81
2020/12/23 00:21:54;;;;;;;12.93;1.80;;;7.10;99.90;;;;;;5071619;28;20354;-81
2020/12/23 00:24:20;;;;;;;16.73;1.48;;;7.10;99.90;;;;;;5089656;28;20043;-82
2020/12/23 00:26:46;;;;;;;6.78;1.40;;;7.10;99.90;;;;;;5072098;28;20127;-80
2020/12/23 00:29:12;;;;;;;11.45;1.65;;;7.10;99.90;;;;;;5090812;28;20024;-81
2020/12/23 00:31:39;;;;;;;8.05;1.58;;;7.10;99.90;;;;;;5071635;28;20028;-80
2020/12/23 00:34:04;;;;;;;10.65;1.65;;;7.10;99.90;;;;;;5090668;28;20063;-81
2020/12/23 00:36:30;;;;;;;13.43;1.92;;;7.10;99.90;;;;;;5090983;28;20059;-81
2020/12/23 00:38:56;;;;;;;14.05;2.17;;;7.10;99.90;;;;;;5071692;28;20032;-82
2020/12/23 00:41:22;;;;;;;15.63;2.13;;;7.20;99.90;;;;;;5088493;28;20047;-81
2020/12/23 00:43:47;;;;;;;10.18;2.28;;;7.20;99.90;;;;;;5071058;28;20042;-81
2020/12/23 00:46:14;;;;;;;11.23;2.28;;;7.20;99.90;;;;;;5088186;28;20036;-81
2020/12/23 00:48:41;;;;;;;13.75;2.40;;;7.20;99.90;;;;;;5088235;28;20028;-81
2020/12/23 00:51:13;;;;;;;13.13;2.30;;;7.20;99.90;;;;;;5088058;28;20122;-81
2020/12/23 00:53:40;;;;;;;11.60;2.60;;;7.20;99.90;;;;;;5087877;28;20079;-81
2020/12/23 00:56:06;;;;;;;10.40;2.42;;;7.10;99.90;;;;;;5087715;28;20134;-79
2020/12/23 00:58:32;;;;;;;17.58;4.22;;;7.10;99.90;;;;;;5087695;28;20028;-81
2020/12/23 01:00:58;;;;;;;15.52;2.67;;;7.10;99.90;;;;;;5087603;28;20020;-81
2020/12/23 01:03:25;;;;;;;11.30;2.67;;;7.00;99.90;;;;;;5089094;28;20464;-81
2020/12/23 01:05:51;;;;;;;12.23;2.58;;;7.00;99.90;;;;;;5089035;28;20069;-81
2020/12/23 01:08:17;;;;;;;9.90;2.95;;;6.90;99.90;;;;;;5087162;28;20031;-81
2020/12/23 01:10:47;;;;;;;8.35;2.08;;;6.90;99.90;;;;;;5087538;28;20032;-82
2020/12/23 01:13:13;;;;;;;;;;;7.00;99.90;;;;;;5088184;28;20032;-83
2020/12/23 01:15:38;;;;;;;13.68;2.40;;;7.00;99.90;;;;;;5087477;28;19912;-80
2020/12/23 01:18:04;;;;;;;9.68;1.98;;;6.90;99.90;;;;;;5087626;28;20430;-81
2020/12/23 01:20:30;;;;;;;13.95;2.00;;;6.90;99.90;;;;;;5087584;28;20031;-81
2020/12/23 01:22:55;;;;;;;13.05;2.28;;;6.90;99.90;;;;;;5087794;28;20024;-81
2020/12/23 01:25:21;;;;;;;7.90;1.95;;;6.90;99.90;;;;;;5070627;28;20580;-82
2020/12/23 01:27:47;;;;;;;14.07;2.13;;;6.90;99.90;;;;;;5087832;28;20056;-81
2020/12/23 01:30:14;;;;;;;11.57;1.85;;;6.90;99.90;;;;;;5087600;28;20039;-83
2020/12/23 01:32:40;;;;;;;9.52;1.98;;;6.90;99.90;;;;;;5087643;28;20085;-83
2020/12/23 01:35:06;;;;;;;6.57;2.05;;;6.90;99.90;;;;;;5070179;28;20052;-81
2020/12/23 01:37:31;;;;;;;16.42;1.83;;;6.90;99.90;;;;;;5087441;28;20029;-80
2020/12/23 01:39:57;;;;;;;11.35;2.00;;;6.90;99.90;;;;;;5087093;28;20038;-80
2020/12/23 01:42:23;;;;;;;8.68;1.60;;;7.00;99.90;;;;;;5088623;28;20029;-82
2020/12/23 01:44:48;;;;;;;18.35;2.20;;;7.00;99.90;;;;;;5086826;28;20040;-82
2020/12/23 01:47:23;;;;;;;8.30;2.10;;;7.00;99.90;;;;;;5086804;28;20069;-81
2020/12/23 01:49:49;;;;;;;9.75;2.05;;;7.10;99.90;;;;;;5070339;28;20270;-81
2020/12/23 01:52:16;;;;;;;12.05;1.90;;;7.00;99.90;;;;;;5087987;28;20070;-81
2020/12/23 01:54:42;;;;;;;10.65;1.65;;;7.00;99.90;;;;;;5087614;28;20028;-81
2020/12/23 01:57:11;;;;;;;7.88;1.65;;;7.00;99.90;;;;;;5086921;28;20031;-80
2020/12/23 01:59:38;;;;;;;18.77;2.40;;;7.00;99.90;;;;;;5070216;28;20119;-81
2020/12/23 02:02:36;;;;;;;11.18;2.10;;;6.90;99.90;;;;;;5087194;28;20052;-81
2020/12/23 02:05:05;;;;;;;14.27;2.47;;;6.90;99.90;;;;;;5070388;28;20028;-81
2020/12/23 02:07:31;;;;;;;11.35;1.35;;;6.90;99.90;;;;;;5087753;28;20467;-82
2020/12/23 02:10:00;;;;;;;6.63;1.55;;;6.90;99.90;;;;;;5086856;28;20039;-81
2020/12/23 02:12:26;;;;;;;11.50;1.67;;;6.90;99.90;;;;;;5088059;28;20050;-81
2020/12/23 02:14:59;;;;;;;10.07;2.13;;;6.90;99.90;;;;;;5069832;28;20478;-81
2020/12/23 02:17:27;;;;;;;10.88;1.55;;;6.90;99.90;;;;;;5087958;28;20132;-81
2020/12/23 02:19:53;;;;;;;24.83;2.17;;;6.90;99.90;;;;;;5087990;28;20024;-80
2020/12/23 02:22:27;;;;;;;7.78;1.60;;;6.90;99.90;;;;;;5090468;28;20024;-81
2020/12/23 02:24:52;;;;;;;11.18;1.65;;;6.90;99.90;;;;;;5090216;28;20071;-81
2020/12/23 02:27:20;;;;;;;13.55;1.58;;;6.90;99.90;;;;;;5073522;28;20028;-81
2020/12/23 02:29:47;;;;;;;12.70;1.70;;;6.90;99.90;;;;;;5090518;28;20082;-81
2020/12/23 02:32:13;;;;;;;13.45;2.00;;;6.90;99.90;;;;;;5090354;28;20028;-81
2020/12/23 02:34:39;;;;;;;12.60;1.38;;;6.90;99.90;;;;;;5090426;28;20032;-80
2020/12/23 02:37:06;;;;;;;13.90;2.40;;;6.90;99.90;;;;;;5090185;28;20024;-80
2020/12/23 02:39:33;;;;;;;10.10;1.33;;;6.90;99.90;;;;;;5090092;28;20032;-80
2020/12/23 02:42:00;;;;;;;13.57;1.65;;;6.90;99.90;;;;;;5090097;28;20030;-80
2020/12/23 02:44:26;;;;;;;16.95;1.90;;;6.90;99.90;;;;;;5090363;28;20024;-81
2020/12/23 02:46:57;;;;;;;14.05;1.58;;;6.80;99.90;;;;;;5090474;28;20021;-80
2020/12/23 02:49:23;;;;;;;18.77;1.88;;;6.90;99.90;;;;;;5090128;28;20024;-81
2020/12/23 02:51:49;;;;;;;8.98;1.10;;;6.90;99.90;;;;;;5090879;28;20040;-81
2020/12/23 02:54:14;;;;;;;10.15;1.73;;;6.90;99.90;;;;;;5091094;28;20077;-80
2020/12/23 02:56:40;;;;;;;7.57;1.58;;;6.80;99.90;;;;;;5090318;28;20017;-81
2020/12/23 02:59:06;;;;;;;11.30;1.02;;;6.80;99.90;;;;;;5089593;28;20052;-81
2020/12/23 03:01:32;;;;;;;8.02;1.15;;;6.70;99.90;;;;;;5089681;28;20097;-80
2020/12/23 03:03:57;;;;;;;6.68;1.10;;;6.70;99.90;;;;;;5090267;28;20467;-81
2020/12/23 03:06:23;;;;;;;7.28;1.30;;;6.60;99.90;;;;;;5072698;28;20363;-81
2020/12/23 03:08:49;;;;;;;10.20;1.33;;;6.60;99.90;;;;;;5089490;28;20039;-80
2020/12/23 03:11:14;;;;;;;7.97;1.33;;;6.60;99.90;;;;;;5089752;28;20028;-80
2020/12/23 03:13:40;;;;;;;6.95;1.48;;;6.50;99.90;;;;;;5089482;28;20053;-81
2020/12/23 03:16:06;;;;;;;6.28;1.33;;;6.50;99.90;;;;;;5089383;28;20028;-81
2020/12/23 03:18:31;;;;;;;20.73;3.35;;;6.40;99.90;;;;;;5089649;28;20028;-81
2020/12/23 03:20:57;;;;;;;10.15;2.33;;;6.40;99.90;;;;;;5089582;28;20562;-80
2020/12/23 03:23:23;;;;;;;6.13;2.20;;;6.50;99.90;;;;;;5089428;28;20413;-81
2020/12/23 03:25:49;;;;;;;7.22;1.90;;;6.40;99.90;;;;;;5089153;28;20109;-80
2020/12/23 03:28:14;;;;;;;10.85;1.40;;;6.40;99.90;;;;;;5089473;28;20131;-81
2020/12/23 03:30:40;;;;;;;8.68;1.85;;;6.40;99.90;;;;;;5088902;28;20051;-81
2020/12/23 03:33:06;;;;;;;10.73;1.80;;;6.40;99.90;;;;;;5089162;28;20497;-81
2020/12/23 03:35:31;;;;;;;5.40;1.55;;;6.50;99.90;;;;;;5089321;28;20382;-81
2020/12/23 03:37:57;;;;;;;18.02;2.65;;;6.50;99.90;;;;;;5089581;28;20040;-80
2020/12/23 03:40:23;;;;;;;9.57;1.80;;;6.50;99.90;;;;;;5089444;28;20024;-81
2020/12/23 03:42:48;;;;;;;8.65;2.13;;;6.40;99.90;;;;;;5089242;28;20035;-81
2020/12/23 03:45:14;;;;;;;17.38;2.60;;;6.40;99.90;;;;;;5089102;28;20194;-81
2020/12/23 03:47:39;;;;;;;12.02;1.48;;;6.40;99.90;;;;;;5088986;28;20036;-82
2020/12/23 03:50:05;;;;;;;13.68;2.15;;;6.50;99.90;;;;;;5088960;28;20382;-80
2020/12/23 03:52:31;;;;;;;12.10;2.55;;;6.50;99.90;;;;;;5088646;28;20031;-81
2020/12/23 03:54:57;;;;;;;16.42;2.60;;;6.50;99.90;;;;;;5088927;28;20070;-81
2020/12/23 03:57:23;;;;;;;12.45;1.60;;;6.50;99.90;;;;;;5090423;28;20371;-81
2020/12/23 03:59:48;;;;;;;5.85;2.33;;;6.60;99.90;;;;;;5088547;28;20035;-82
2020/12/23 04:02:14;;;;;;;13.98;2.10;;;6.50;99.90;;;;;;5090076;28;20030;-80
2020/12/23 04:04:40;;;;;;;7.68;1.95;;;6.50;99.90;;;;;;5088712;28;20467;-80
2020/12/23 04:07:05;;;;;;;10.00;2.00;;;6.40;99.90;;;;;;5088471;28;20115;-80
2020/12/23 04:09:31;;;;;;;7.40;1.85;;;6.40;99.90;;;;;;5089972;28;20394;-81
2020/12/23 04:11:57;;;;;;;6.35;1.40;;;6.40;99.90;;;;;;5088553;28;20039;-81
2020/12/23 04:14:22;;;;;;;9.15;1.48;;;6.40;99.90;;;;;;5088356;28;20032;-81
2020/12/23 04:16:48;;;;;;;14.10;1.70;;;6.30;99.90;;;;;;5088842;28;20119;-81
2020/12/23 04:19:14;;;;;;;9.95;1.63;;;6.30;99.90;;;;;;5088557;28;20020;-81
2020/12/23 04:21:39;;;;;;;13.25;1.80;;;6.30;99.90;;;;;;5088862;28;20028;-81
2020/12/23 04:24:05;;;;;;;11.77;1.42;;;6.30;99.90;;;;;;5088224;28;20071;-81
2020/12/23 04:26:30;;;;;;;7.22;1.33;;;6.40;99.90;;;;;;5088356;28;20073;-80
2020/12/23 04:28:56;;;;;;;13.07;1.10;;;6.40;99.90;;;;;;5088116;28;20063;-81
2020/12/23 04:31:22;;;;;;;15.43;1.60;;;6.30;99.90;;;;;;5088416;28;20039;-81
2020/12/23 04:33:47;;;;;;;6.95;1.77;;;6.30;99.90;;;;;;5088521;28;20035;-81
2020/12/23 04:36:13;;;;;;;8.98;1.60;;;6.30;99.90;;;;;;5088375;28;20110;-80
2020/12/23 04:38:39;;;;;;;11.23;1.42;;;6.30;99.90;;;;;;5088190;28;20379;-81
2020/12/23 04:41:04;;;;;;;7.30;0.95;;;6.30;99.90;;;;;;5087935;28;20093;-79
2020/12/23 04:43:30;;;;;;;11.40;1.73;;;6.30;99.90;;;;;;5087269;28;20067;-81
2020/12/23 04:45:57;;;;;;;11.60;1.48;;;6.20;99.90;;;;;;5071675;28;20441;-81
2020/12/23 04:48:29;;;;;;;15.63;1.75;;;6.20;99.90;;;;;;5071094;28;20035;-80
2020/12/23 04:50:56;;;;;;;8.13;1.13;;;6.20;99.90;;;;;;5089331;28;20103;-80
2020/12/23 04:53:22;;;;;;;7.68;2.28;;;6.20;99.90;;;;;;5087986;28;20055;-80
2020/12/23 04:55:48;;;;;;;9.15;1.05;;;6.10;99.90;;;;;;5087524;28;20453;-80
2020/12/23 04:58:14;;;;;;;8.30;1.10;;;6.10;99.90;;;;;;5087776;28;20097;-80
2020/12/23 05:00:40;;;;;;;8.18;1.50;;;6.10;99.90;;;;;;5088443;28;20028;-80
2020/12/23 05:03:06;;;;;;;8.55;1.27;;;6.10;99.90;;;;;;5071698;28;20034;-80
2020/12/23 05:05:32;;;;;;;7.10;1.50;;;6.20;99.90;;;;;;5088742;28;20107;-80
2020/12/23 05:07:58;;;;;;;5.97;1.13;;;6.20;99.90;;;;;;5088060;28;20039;-81
2020/12/23 05:10:30;;;;;;;9.10;0.90;;;6.30;99.90;;;;;;5088218;28;20544;-79
2020/12/23 05:12:56;;;;;;;9.27;1.02;;;6.30;99.90;;;;;;5072635;28;20064;-81
2020/12/23 05:15:23;;;;;;;4.68;0.63;;;6.30;99.90;;;;;;5088541;28;20064;-80
2020/12/23 05:17:51;;;;;;;4.18;0.68;;;6.30;99.90;;;;;;5087775;28;20031;-80
2020/12/23 05:20:17;;;;;;;7.07;0.93;;;6.20;99.90;;;;;;5088542;28;20088;-80
2020/12/23 05:22:51;;;;;;;5.07;0.75;;;6.20;99.90;;;;;;5088525;28;20024;-80
2020/12/23 05:25:17;;;;;;;3.67;0.60;;;6.20;99.90;;;;;;5087513;28;20055;-80
2020/12/23 05:27:44;;;;;;;5.82;0.77;;;6.10;99.90;;;;;;5087701;28;20102;-80
2020/12/23 05:30:10;;;;;;;7.85;0.75;;;6.10;99.90;;;;;;5070262;28;20032;-79
2020/12/23 05:32:38;;;;;;;4.32;0.73;;;6.00;99.90;;;;;;5088625;28;20048;-80
2020/12/23 05:35:04;;;;;;;3.92;0.80;;;6.00;99.90;;;;;;5087383;28;20023;-80
2020/12/23 05:37:31;;;;;;;14.35;0.95;;;5.90;99.90;;;;;;5088898;28;20359;-80
2020/12/23 05:39:58;;;;;;;3.72;0.60;;;5.90;99.90;;;;;;5087891;28;20552;-81
2020/12/23 05:42:23;;;;;;;3.97;0.90;;;5.90;99.90;;;;;;5070254;28;20487;-82
2020/12/23 05:44:55;;;;;;;6.03;0.90;;;5.90;99.90;;;;;;5088655;28;20043;-81
2020/12/23 05:47:22;;;;;;;9.18;0.88;;;5.90;99.90;;;;;;5087758;28;20031;-81
2020/12/23 05:49:49;;;;;;;7.75;0.60;;;5.90;99.90;;;;;;5088354;28;20120;-81
2020/12/23 05:52:16;;;;;;;5.03;0.80;;;5.90;99.90;;;;;;5070921;28;20088;-81
2020/12/23 05:54:44;;;;;;;5.60;0.43;;;5.90;99.90;;;;;;5088159;28;20024;-81
2020/12/23 05:57:09;;;;;;;3.53;0.57;;;5.90;99.90;;;;;;5088512;28;20016;-80
2020/12/23 05:59:35;;;;;;;3.08;0.68;;;5.90;99.90;;;;;;5087585;28;20419;-82
2020/12/23 06:02:03;;;;;;;3.53;0.70;;;5.90;99.90;;;;;;5087421;28;20112;-83
2020/12/23 06:04:31;;;;;;;4.60;0.60;;;5.90;99.90;;;;;;5088762;28;20027;-82
2020/12/23 06:07:04;;;;;;;3.40;0.60;;;5.90;99.90;;;;;;5088851;28;20516;-81
2020/12/23 06:09:35;;;;;;;5.13;1.05;;;5.90;99.90;;;;;;5088448;28;20016;-81
2020/12/23 06:12:21;;;;;;;16.77;0.77;;;5.90;99.90;;;;;;5086762;28;20077;-81
2020/12/23 06:14:58;;;;;;;3.30;0.43;;;5.90;99.90;;;;;;5070371;28;20036;-81
2020/12/23 06:17:25;;;;;;;2.83;0.57;;;5.90;99.90;;;;;;5086875;28;20016;-80
2020/12/23 06:19:55;;;;;;;2.05;0.43;;;5.90;99.90;;;;;;5086913;28;20387;-81
2020/12/23 06:22:23;;;;;;;5.25;0.57;;;5.90;99.90;;;;;;5086631;28;20030;-80
2020/12/23 06:24:49;;;;;;;4.05;0.80;;;5.80;99.90;;;;;;5087724;28;20078;-80
2020/12/23 06:27:15;;;;;;;5.15;0.68;;;5.90;99.90;;;;;;5086611;28;20055;-81
2020/12/23 06:29:43;;;;;;;15.52;0.90;;;5.90;99.90;;;;;;5087228;28;20043;-82
2020/12/23 06:32:17;;;;;;;6.60;1.15;;;5.90;99.90;;;;;;5086908;28;20115;-81
2020/12/23 06:34:43;;;;;;;8.73;0.63;;;6.00;99.90;;;;;;5086705;28;20028;-81
2020/12/23 06:37:17;;;;;;;10.20;1.02;;;6.00;99.90;;;;;;5086292;28;20028;-81
2020/12/23 06:39:43;;;;;;;5.20;0.70;;;6.00;99.90;;;;;;5086467;28;20038;-81
2020/12/23 06:42:09;;;;;;;6.85;0.85;;;6.00;99.90;;;;;;5086647;28;20115;-81
2020/12/23 06:44:44;;;;;;;8.10;0.70;;;6.00;99.90;;;;;;5086590;28;20107;-81
2020/12/23 06:47:15;;;;;;;4.53;0.43;;;6.00;99.90;;;;;;5086681;28;20016;-81
2020/12/23 06:49:43;;;;;;;3.45;0.55;;;6.00;99.90;;;;;;5087339;28;20016;-80
2020/12/23 06:52:21;;;;;;;6.55;0.77;;;6.10;99.90;;;;;;5086527;28;20039;-82
2020/12/23 06:55:02;;;;;;;4.63;0.73;;;6.10;99.90;;;;;;5087921;28;20077;-81
2020/12/23 06:57:37;;;;;;;4.53;0.68;;;6.10;99.90;;;;;;5086294;28;20073;-81
2020/12/23 07:00:06;;;;;;;7.32;0.80;;;6.10;99.90;;;;;;5087158;28;20024;-80
2020/12/23 07:02:33;;;;;;;;;;;6.10;99.90;;;;;;5088111;28;20036;-81
2020/12/23 07:04:59;;;;;;;5.75;0.55;;;6.10;99.90;;;;;;5086415;28;19912;-82
2020/12/23 07:07:38;;;;;;;14.77;1.13;;;6.10;99.90;;;;;;5089998;28;20067;-82
2020/12/23 07:10:11;;;;;;;8.70;1.52;;;6.10;99.90;;;;;;5089756;28;20071;-81
2020/12/23 07:12:47;;;;;;;6.80;0.93;;;6.20;99.90;;;;;;5089769;28;20116;-81
2020/12/23 07:15:19;;;;;;;6.50;0.85;;;6.20;99.90;;;;;;5089609;28;20512;-82
2020/12/23 07:17:46;;;;;;;9.25;1.05;;;6.20;99.90;;;;;;5091183;28;20036;-82
2020/12/23 07:20:16;;;;;;;7.90;0.93;;;6.20;99.90;;;;;;5089527;28;20474;-82
2020/12/23 07:22:47;;;;;;;6.68;0.90;;;6.30;99.90;;;;;;5090026;28;20189;-81
2020/12/23 07:25:26;;;;;;;6.05;1.95;;;6.30;99.90;;;;;;5091285;28;20454;-73
2020/12/23 07:27:57;;;;;;;8.30;0.77;;;6.30;99.90;;;;;;5090966;28;20020;-82
2020/12/23 07:30:23;;;;;;;7.68;1.10;;;6.30;99.90;;;;;;5089610;28;20455;-81
2020/12/23 07:33:05;;;;;;;3.55;0.80;;;6.30;99.90;;;;;;5072577;28;20032;-83
2020/12/23 07:35:31;;;;;;;4.47;0.98;;;6.30;99.90;;;;;;5089984;28;20089;-82
2020/12/23 07:38:03;;;;;;;7.95;0.77;;;6.30;99.90;;;;;;5072381;28;20024;-81
2020/12/23 07:40:30;;;;;;;12.35;1.10;;;6.30;99.90;;;;;;5089259;28;20024;-81
2020/12/23 07:42:57;;;;;;;10.57;1.38;;;6.30;99.90;;;;;;5089242;28;20024;-83
2020/12/23 07:45:28;;;;;;;6.15;0.88;;;6.30;99.90;;;;;;5088685;28;20557;-82
2020/12/23 07:47:56;;;;;;;8.13;1.00;;;6.20;99.90;;;;;;5088985;28;20028;-83
2020/12/23 07:50:23;;;;;;;4.93;0.90;;;6.20;99.90;;;;;;5089495;28;20084;-84
2020/12/23 07:52:48;;;;;;;9.63;0.80;;;6.20;99.90;;;;;;5089480;28;20036;-81
2020/12/23 07:55:15;;;;;;;3.85;0.90;;;6.20;99.90;;;;;;5089398;28;20043;-82
2020/12/23 07:57:41;;;;;;;9.80;1.10;;;6.20;99.90;;;;;;5089205;28;20024;-82
2020/12/23 08:00:09;;;;;;;6.82;1.05;;;6.20;99.90;;;;;;5089100;28;20055;-81
2020/12/23 08:02:35;;;;;;;7.25;1.13;;;6.20;99.90;;;;;;5088989;28;20027;-81
2020/12/23 08:05:02;;;;;;;9.73;1.67;;;6.30;99.90;;;;;;5088934;28;20036;-83
2020/12/23 08:07:28;;;;;;;7.93;1.20;;;6.30;99.90;;;;;;5088863;28;20359;-83
2020/12/23 08:09:54;;;;;;;13.10;1.30;;;6.30;99.90;;;;;;5071822;28;20028;-81
2020/12/23 08:12:21;;;;;;;10.73;0.98;;;6.30;99.90;;;;;;5071961;28;20454;-81
2020/12/23 08:14:48;;;;;;;9.25;2.05;;;6.30;99.90;;;;;;5088744;28;20032;-82
2020/12/23 08:17:23;;;;;;;13.55;1.10;;;6.30;99.90;;;;;;5087088;28;20024;-82
2020/12/23 08:20:10;;;;;;;6.85;0.98;;;6.40;99.90;;;;;;5088437;28;20073;-81
2020/12/23 08:22:38;;;;;;;8.15;0.85;;;6.40;99.90;;;;;;5088766;28;20111;-82
2020/12/23 08:25:12;;;;;;;6.70;1.05;;;6.30;99.90;;;;;;5089733;28;20102;-82
2020/12/23 08:27:40;;;;;;;4.82;0.73;;;6.30;99.90;;;;;;5090607;28;20366;-82
2020/12/23 08:30:17;;;;;;;5.10;0.93;;;6.40;99.90;;;;;;5090243;28;20437;-84
2020/12/23 08:32:56;;;;;;;5.10;0.98;;;6.40;99.90;;;;;;5088885;28;20032;-81
2020/12/23 08:35:34;;;;;;;12.38;1.58;;;6.40;99.90;;;;;;5088721;28;20028;-82
2020/12/23 08:38:00;;;;;;;5.90;0.65;;;6.40;99.90;;;;;;5090044;28;20079;-82
2020/12/23 08:40:26;;;;;;;6.57;0.95;;;6.50;99.90;;;;;;5088564;28;20311;-83
2020/12/23 08:42:56;;;;;;;4.18;0.70;;;6.40;99.90;;;;;;5089323;28;20032;-82
2020/12/23 08:45:22;;;;;;;;;;;6.40;99.90;;;;;;5088843;28;20111;-82
2020/12/23 08:47:49;;;;;;;5.30;0.85;;;6.40;99.90;;;;;;5088091;28;19938;-82
2020/12/23 08:50:18;;;;;;;9.55;1.00;;;6.40;99.90;;;;;;5087644;28;20031;-82
2020/12/23 08:52:48;;;;;;;9.05;1.00;;;6.50;99.90;;;;;;5087598;28;20032;-82
2020/12/23 08:55:19;;;;;;;6.18;1.27;;;6.50;99.90;;;;;;5088815;28;20130;-83
2020/12/23 08:57:46;;;;;;;7.03;1.30;;;6.50;99.90;;;;;;5087872;28;20348;-82
2020/12/23 09:00:22;;;;;;;5.30;1.20;;;6.50;99.90;;;;;;5087862;28;20119;-82
2020/12/23 09:02:48;;;;;;;13.43;2.20;;;6.50;99.90;;;;;;5087513;28;20042;-82
2020/12/23 09:05:23;;;;;;;7.78;0.73;;;6.60;99.90;;;;;;5088606;28;20539;-81
2020/12/23 09:08:01;;;;;;;3.17;0.55;;;6.60;99.90;;;;;;5089491;28;20084;-82
2020/12/23 09:10:27;;;;;;;3.47;0.68;;;6.60;99.90;;;;;;5090746;28;20032;-81
2020/12/23 09:13:11;;;;;;;5.30;0.85;;;6.60;99.90;;;;;;5089768;28;20038;-82
2020/12/23 09:15:37;;;;;;;4.93;0.85;;;6.60;99.90;;;;;;5090439;28;20089;-83
2020/12/23 09:18:13;;;;;;;3.90;0.75;;;6.60;99.90;;;;;;5091008;28;20012;-81
2020/12/23 09:20:40;;;;;;;6.10;0.85;;;6.60;99.90;;;;;;5090331;28;20054;-82
2020/12/23 09:23:09;;;;;;;5.40;0.82;;;6.60;99.90;;;;;;5088119;28;20356;-82
2020/12/23 09:25:38;;;;;;;8.00;1.17;;;6.70;99.90;;;;;;5088202;28;20406;-83
2020/12/23 09:28:12;;;;;;;8.60;1.50;;;6.70;99.90;;;;;;5087929;28;20289;-81
2020/12/23 09:30:46;;;;;;;12.13;2.10;;;6.70;99.90;;;;;;5088813;28;20040;-82
2020/12/23 09:33:14;;;;;;;7.82;1.20;;;6.80;99.90;;;;;;5087528;28;20024;-82
2020/12/23 09:35:41;;;;;;;6.97;1.40;;;6.80;99.90;;;;;;5087735;28;20039;-82
2020/12/23 09:38:10;;;;;;;5.35;1.20;;;6.80;99.90;;;;;;5087946;28;20023;-82
2020/12/23 09:40:38;;;;;;;7.40;2.05;;;6.80;99.90;;;;;;5089813;28;20546;-81
2020/12/23 09:43:14;;;;;;;4.25;1.65;;;6.80;99.90;;;;;;5089763;28;20099;-80
2020/12/23 09:45:40;;;;;;;5.47;1.55;;;6.80;99.90;;;;;;5089435;28;20071;-82
2020/12/23 09:48:06;;;;;;;6.72;1.48;;;6.80;99.90;;;;;;5088555;28;20335;-81
2020/12/23 09:50:32;;;;;;;5.43;1.55;;;6.80;99.90;;;;;;5089144;28;20027;-82
2020/12/23 09:52:58;;;;;;;6.32;2.10;;;6.80;99.90;;;;;;5088152;28;20105;-83
2020/12/23 09:55:24;;;;;;;3.45;1.40;;;6.80;99.90;;;;;;5087244;28;20462;-82
2020/12/23 09:57:50;;;;;;;6.40;1.40;;;6.80;99.90;;;;;;5086736;28;20024;-83
2020/12/23 10:00:17;;;;;;;9.73;2.00;;;6.80;99.90;;;;;;5088238;28;20034;-83
2020/12/23 10:02:44;;;;;;;3.80;1.85;;;6.80;99.90;;;;;;5088831;28;20115;-83
2020/12/23 10:05:09;;;;;;;4.80;1.30;;;6.80;99.90;;;;;;5071940;28;20207;-84
2020/12/23 10:07:35;;;;;;;5.63;1.73;;;6.80;99.90;;;;;;5088959;28;20067;-83
2020/12/23 10:10:01;;;;;;;6.45;2.10;;;6.80;99.90;;;;;;5088225;28;20032;-85
2020/12/23 10:12:27;;;;;;;3.20;1.20;;;6.80;99.90;;;;;;5089377;28;20023;-83
2020/12/23 10:14:53;;;;;;;5.95;2.10;;;6.80;99.90;;;;;;5070857;28;20032;-82
2020/12/23 10:17:19;;;;;;;4.38;2.30;;;6.70;99.90;;;;;;5071540;28;20036;-83
2020/12/23 10:19:44;;;;;;;4.72;1.80;;;6.70;99.90;;;;;;5100077;28;20023;-82
2020/12/23 10:22:10;;;;;;;8.65;2.63;;;6.70;99.90;;;;;;5054265;28;20020;-84
2020/12/23 10:24:36;;;;;;;4.05;2.03;;;6.70;99.90;;;;;;5087537;28;20105;-82
2020/12/23 10:27:02;;;;;;;4.90;2.10;;;6.70;99.90;;;;;;5089028;28;20111;-82
2020/12/23 10:29:28;;;;;;;5.68;2.40;;;6.70;99.90;;;;;;5087882;28;20028;-84
2020/12/23 10:31:53;;;;;;;8.43;1.95;;;6.70;99.90;;;;;;5087849;28;20024;-82
2020/12/23 10:34:19;;;;;;;7.25;2.17;;;6.70;99.90;;;;;;5087865;28;20039;-81
2020/12/23 10:36:48;;;;;;;8.00;2.63;;;6.70;99.90;;;;;;5087730;28;20466;-82
2020/12/23 10:39:18;;;;;;;8.00;2.25;;;6.70;99.90;;;;;;5070928;28;20043;-81
2020/12/23 10:41:44;;;;;;;6.32;2.15;;;6.70;99.90;;;;;;5090602;28;20031;-80
2020/12/23 10:44:10;;;;;;;9.38;2.28;;;6.70;99.90;;;;;;5091997;28;20374;-82
2020/12/23 10:46:36;;;;;;;4.75;2.60;;;6.70;99.90;;;;;;5091643;28;20043;-79
2020/12/23 10:49:04;;;;;;;6.78;2.42;;;6.60;99.90;;;;;;5093886;28;20073;-80
2020/12/23 10:51:30;;;;;;;10.23;2.70;;;6.60;99.90;;;;;;5091581;28;20082;-80
2020/12/23 10:53:55;;;;;;;9.38;2.50;;;6.60;99.90;;;;;;5075051;28;20031;-82
2020/12/23 10:56:21;;;;;;;7.15;2.30;;;6.70;99.90;;;;;;5091646;28;20520;-80
2020/12/23 10:58:47;;;;;;;8.27;2.90;;;6.60;99.90;;;;;;5091206;28;20031;-84
2020/12/23 11:01:18;;;;;;;13.90;2.95;;;6.70;99.90;;;;;;5093259;28;20020;-82
2020/12/23 11:03:43;;;;;;;13.73;2.70;;;6.60;99.90;;;;;;5096313;28;20024;-80
2020/12/23 11:06:12;;;;;;;3.20;1.35;;;6.70;99.90;;;;;;5093665;28;20028;-82
2020/12/23 11:08:38;;;;;;;11.55;2.92;;;6.70;99.90;;;;;;5093730;28;20432;-78
2020/12/23 11:11:04;;;;;;;7.43;1.70;;;6.70;99.90;;;;;;5094162;28;20114;-76
2020/12/23 11:13:30;;;;;;;10.57;2.00;;;6.80;99.90;;;;;;5094221;28;20019;-81
2020/12/23 11:15:55;;;;;;;3.47;0.98;;;6.80;99.90;;;;;;5093830;28;20331;-81
2020/12/23 11:18:21;;;;;;;6.07;1.20;;;6.80;99.90;;;;;;5095166;28;20027;-80
2020/12/23 11:20:47;;;;;;;5.82;1.55;;;6.80;99.90;;;;;;5094227;28;20123;-79
2020/12/23 11:23:26;;;;;;;8.13;1.52;;;6.80;99.90;;;;;;5095474;28;20073;-81
2020/12/23 11:25:52;;;;;;;4.65;1.20;;;6.80;99.90;;;;;;5095464;28;20053;-81
2020/12/23 11:28:19;;;;;;;8.32;1.75;;;6.90;99.90;;;;;;5072898;28;20064;-81
2020/12/23 11:30:45;;;;;;;8.50;1.25;;;6.90;99.90;;;;;;5072597;28;20025;-82
2020/12/23 11:33:11;;;;;;;7.93;1.58;;;7.00;99.90;;;;;;5073432;28;20024;-81
2020/12/23 11:35:36;;;;;;;7.32;1.73;;;7.00;99.90;;;;;;5071242;28;20089;-80
2020/12/23 11:38:02;;;;;;;3.50;1.23;;;7.00;99.90;;;;;;5093093;28;20120;-79
2020/12/23 11:40:28;;;;;;;10.95;1.50;;;7.00;99.90;;;;;;5076315;28;20031;-78
2020/12/23 11:42:54;;;;;;;6.93;1.00;;;7.10;99.90;;;;;;5092416;28;20075;-81
2020/12/23 11:45:21;;;;;;;4.60;1.70;;;7.10;99.90;;;;;;5093587;28;20154;-83
2020/12/23 11:47:47;;;;;;;7.75;1.10;;;7.10;99.90;;;;;;5092881;28;20077;-80
2020/12/23 11:50:13;;;;;;;13.15;1.73;;;7.10;99.90;;;;;;5093147;28;20371;-83
2020/12/23 11:52:39;;;;;;;9.65;1.30;;;7.10;99.90;;;;;;5077149;28;20032;-84
2020/12/23 11:55:04;;;;;;;15.32;2.10;;;7.10;99.90;;;;;;5093270;28;20089;-81
2020/12/23 11:57:30;;;;;;;8.70;1.17;;;7.10;99.90;;;;;;5093832;28;20020;-84
2020/12/23 11:59:56;;;;;;;7.72;1.88;;;7.10;99.90;;;;;;5092665;28;20140;-83
2020/12/23 12:02:22;;;;;;;10.82;2.47;;;7.20;99.90;;;;;;5093253;28;20031;-82
2020/12/23 12:04:47;;;;;;;3.72;1.20;;;7.20;99.90;;;;;;5092583;28;20028;-82
2020/12/23 12:07:13;;;;;;;8.73;1.48;;;7.20;99.90;;;;;;5092428;28;20425;-82
2020/12/23 12:09:39;;;;;;;7.47;1.40;;;7.20;99.90;;;;;;5092583;28;20024;-81
2020/12/23 12:12:05;;;;;;;6.63;1.40;;;7.30;99.90;;;;;;5091723;28;20024;-81
2020/12/23 12:14:31;;;;;;;4.85;1.17;;;7.30;99.90;;;;;;5075049;28;20065;-80
2020/12/23 12:16:56;;;;;;;9.27;1.55;;;7.30;99.90;;;;;;5091951;28;20025;-81
2020/12/23 12:19:23;;;;;;;8.07;1.17;;;7.30;99.90;;;;;;5093233;28;20025;-82
2020/12/23 12:21:48;;;;;;;4.55;1.00;;;7.30;99.90;;;;;;5091550;28;20020;-82
2020/12/23 12:24:14;;;;;;;11.00;1.30;;;7.30;99.90;;;;;;5092545;28;20398;-82
2020/12/23 12:26:40;;;;;;;4.70;1.42;;;7.30;99.90;;;;;;5094256;28;20028;-81
2020/12/23 12:29:06;;;;;;;4.45;1.77;;;7.30;99.90;;;;;;5090323;28;20062;-81
2020/12/23 12:31:31;;;;;;;5.15;1.25;;;7.30;99.90;;;;;;5090656;28;20161;-83
2020/12/23 12:33:57;;;;;;;4.03;2.00;;;7.30;99.90;;;;;;5091495;28;20485;-80
2020/12/23 12:36:24;;;;;;;4.25;1.50;;;7.30;99.90;;;;;;5090238;28;20145;-79
2020/12/23 12:38:51;;;;;;;7.28;1.42;;;7.20;99.90;;;;;;5090947;28;20024;-77
2020/12/23 12:41:24;;;;;;;2.47;0.75;;;7.30;99.90;;;;;;5090391;28;20044;-80
2020/12/23 12:43:50;;;;;;;7.88;1.92;;;7.20;99.90;;;;;;5091239;28;20024;-84
2020/12/23 12:46:16;;;;;;;5.00;1.13;;;7.20;99.90;;;;;;5090153;28;20058;-84
2020/12/23 12:48:42;;;;;;;5.22;1.50;;;7.20;99.90;;;;;;5089741;28;20028;-80
2020/12/23 12:51:08;;;;;;;6.85;1.40;;;7.20;99.90;;;;;;5090461;28;20032;-84
2020/12/23 12:53:34;;;;;;;6.72;1.30;;;7.20;99.90;;;;;;5090116;28;20024;-83
2020/12/23 12:55:59;;;;;;;3.72;1.77;;;7.20;99.90;;;;;;5089220;28;20079;-82
2020/12/23 12:58:25;;;;;;;15.15;2.17;;;7.20;99.90;;;;;;5073540;28;20090;-83